Time;durP1;ratioP1;P1;durP2;ratioP2;P2;SDS_P1;SDS_P2;PMS_P1;PMS_P2;Temp;Humidity;BMP_temperature;BMP_pressure;BME280_temperature;BME280_humidity;BME280_pressure;Samples;Min_cycle;Max_cycle;Signal;HPM_P1;HPM_P2
2021/10/29 00:00:28;;;;;;;;;;;;;;;;;;1033866;28;1563;-18
2021/10/29 00:01:04;;;;;;;;;;;;;;;;;;1035083;28;1094;-19
2021/10/29 00:01:35;;;;;;;;;;;;;;;;;;1034690;28;1431;-18
2021/10/29 00:02:05;;;;;;;;;;;;;;;;;;1034953;28;1085;-18
2021/10/29 00:02:36;;;;;;;;;;;;;;;;;;1035100;28;950;-18
2021/10/29 00:03:06;;;;;;;;;;;;;;;;;;1034345;28;1502;-17
2021/10/29 00:03:37;;;;;;;;;;;;;;;;;;1035111;28;1206;-18
2021/10/29 00:04:08;;;;;;;;;;;;;;;;;;1034987;28;1130;-18
2021/10/29 00:04:38;;;;;;;;;;;;;;;;;;1034988;28;933;-18
2021/10/29 00:05:09;;;;;;;;;;;;;;;;;;1035117;28;1006;-18
2021/10/29 00:05:39;;;;;;;;;;;;;;;;;;1034589;28;1087;-18
2021/10/29 00:06:10;;;;;;;;;;;;;;;;;;1034820;28;902;-16
2021/10/29 00:06:40;;;;;;;;;;;;;;;;;;1034825;28;1135;-17
2021/10/29 00:07:12;;;;;;;;;;;;;;;;;;1030184;28;1008;-16
2021/10/29 00:07:42;;;;;;;;;;;;;;;;;;1034668;28;1100;-17
2021/10/29 00:08:12;;;;;;;;;;;;;;;;;;1034259;28;1151;-17
2021/10/29 00:08:42;;;;;;;;;;;;;;;;;;1034254;28;1914;-16
2021/10/29 00:09:13;;;;;;;;;;;;;;;;;;1034876;28;847;-16
2021/10/29 00:09:44;;;;;;;;;;;;;;;;;;1035210;28;897;-16
2021/10/29 00:10:15;;;;;;;;;;;;;;;;;;1034807;28;847;-16
2021/10/29 00:10:45;;;;;;;;;;;;;;;;;;1035362;28;954;-16
2021/10/29 00:11:15;;;;;;;;;;;;;;;;;;1034958;28;962;-17
2021/10/29 00:11:46;;;;;;;;;;;;;;;;;;1035215;28;984;-16
2021/10/29 00:12:18;;;;;;;;;;;;;;;;;;1034952;28;954;-16
2021/10/29 00:12:48;;;;;;;;;;;;;;;;;;1035172;28;1296;-16
2021/10/29 00:13:19;;;;;;;;;;;;;;;;;;1034852;28;1133;-16
2021/10/29 00:13:49;;;;;;;;;;;;;;;;;;1034990;28;1593;-17
2021/10/29 00:14:20;;;;;;;;;;;;;;;;;;1035017;28;1304;-16
2021/10/29 00:14:50;;;;;;;;;;;;;;;;;;1035086;28;1029;-14
2021/10/29 00:15:20;;;;;;;;;;;;;;;;;;1034963;28;961;-16
2021/10/29 00:15:52;;;;;;;;;;;;;;;;;;1035191;28;970;-16
2021/10/29 00:16:22;;;;;;;;;;;;;;;;;;1038191;28;1168;-16
2021/10/29 00:16:52;;;;;;;;;;;;;;;;;;1038652;28;1046;-16
2021/10/29 00:17:23;;;;;;;;;;;;;;;;;;1038280;28;952;-16
2021/10/29 00:17:53;;;;;;;;;;;;;;;;;;1038358;28;834;-15
2021/10/29 00:18:25;;;;;;;;;;;;;;;;;;1035158;28;893;-15
2021/10/29 00:18:55;;;;;;;;;;;;;;;;;;1037834;28;1543;-17
2021/10/29 00:19:26;;;;;;;;;;;;;;;;;;1038271;28;1307;-16
2021/10/29 00:19:57;;;;;;;;;;;;;;;;;;1038379;28;1417;-16
2021/10/29 00:20:27;;;;;;;;;;;;;;;;;;1038205;28;1211;-16
2021/10/29 00:20:58;;;;;;;;;;;;;;;;;;1038324;28;1024;-15
2021/10/29 00:21:28;;;;;;;;;;;;;;;;;;1038213;28;1526;-15
2021/10/29 00:21:59;;;;;;;;;;;;;;;;;;1038038;28;1279;-16
2021/10/29 00:22:29;;;;;;;;;;;;;;;;;;1042547;28;1185;-15
2021/10/29 00:22:59;;;;;;;;;;;;;;;;;;1042294;28;1181;-16
2021/10/29 00:23:31;;;;;;;;;;;;;;;;;;1042432;28;953;-16
2021/10/29 00:24:01;;;;;;;;;;;;;;;;;;1037867;28;1459;-17
2021/10/29 00:24:32;;;;;;;;;;;;;;;;;;1034183;28;1086;-16
2021/10/29 00:25:03;;;;;;;;;;;;;;;;;;1034126;28;1254;-16
2021/10/29 00:25:33;;;;;;;;;;;;;;;;;;1033910;28;1228;-21
2021/10/29 00:26:03;;;;;;;;;;;;;;;;;;1034994;28;1150;-16
2021/10/29 00:26:34;;;;;;;;;;;;;;;;;;1034982;28;992;-15
2021/10/29 00:27:05;;;;;;;;;;;;;;;;;;1038084;28;1469;-16
2021/10/29 00:27:35;;;;;;;;;;;;;;;;;;1034079;28;1179;-17
2021/10/29 00:28:06;;;;;;;;;;;;;;;;;;1025730;28;1104;-17
2021/10/29 00:28:37;;;;;;;;;;;;;;;;;;1026275;28;1911;-17
2021/10/29 00:29:07;;;;;;;;;;;;;;;;;;1026105;28;1050;-16
2021/10/29 00:29:38;;;;;;;;;;;;;;;;;;1021643;28;1743;-15
2021/10/29 00:30:09;;;;;;;;;;;;;;;;;;1030229;28;1227;-16
2021/10/29 00:30:39;;;;;;;;;;;;;;;;;;1030087;28;1460;-15
2021/10/29 00:31:10;;;;;;;;;;;;;;;;;;1034136;28;972;-15
2021/10/29 00:31:40;;;;;;;;;;;;;;;;;;1034418;28;997;-16
2021/10/29 00:32:10;;;;;;;;;;;;;;;;;;1037980;28;1436;-16
2021/10/29 00:32:40;;;;;;;;;;;;;;;;;;1038385;28;1238;-16
2021/10/29 00:33:11;;;;;;;;;;;;;;;;;;1035070;28;1005;-16
2021/10/29 00:33:41;;;;;;;;;;;;;;;;;;1034816;28;1276;-16
2021/10/29 00:34:12;;;;;;;;;;;;;;;;;;1034978;28;886;-16
2021/10/29 00:34:42;;;;;;;;;;;;;;;;;;1035105;28;1098;-16
2021/10/29 00:35:12;;;;;;;;;;;;;;;;;;1034770;28;938;-16
2021/10/29 00:35:43;;;;;;;;;;;;;;;;;;1035137;28;935;-16
2021/10/29 00:36:13;;;;;;;;;;;;;;;;;;1034844;28;1263;-16
2021/10/29 00:36:44;;;;;;;;;;;;;;;;;;1034953;28;1022;-15
2021/10/29 00:37:14;;;;;;;;;;;;;;;;;;1034748;28;1304;-14
2021/10/29 00:37:45;;;;;;;;;;;;;;;;;;1034922;28;1194;-16
2021/10/29 00:38:15;;;;;;;;;;;;;;;;;;1034662;28;1270;-15
2021/10/29 00:38:46;;;;;;;;;;;;;;;;;;1038347;28;1023;-15
2021/10/29 00:39:16;;;;;;;;;;;;;;;;;;1038184;28;970;-16
2021/10/29 00:39:47;;;;;;;;;;;;;;;;;;1038277;28;1114;-15
2021/10/29 00:40:17;;;;;;;;;;;;;;;;;;1038313;28;909;-15
2021/10/29 00:40:48;;;;;;;;;;;;;;;;;;1034299;28;1155;-15
2021/10/29 00:41:18;;;;;;;;;;;;;;;;;;1034199;28;1173;-16
2021/10/29 00:41:49;;;;;;;;;;;;;;;;;;1038382;28;1073;-16
2021/10/29 00:42:20;;;;;;;;;;;;;;;;;;1038226;28;1056;-16
2021/10/29 00:42:50;;;;;;;;;;;;;;;;;;1038310;28;913;-16
2021/10/29 00:43:21;;;;;;;;;;;;;;;;;;1038372;28;1084;-16
2021/10/29 00:43:51;;;;;;;;;;;;;;;;;;1034685;28;1377;-16
2021/10/29 00:44:23;;;;;;;;;;;;;;;;;;1034830;28;1026;-16
2021/10/29 00:44:53;;;;;;;;;;;;;;;;;;1034938;28;1377;-16
2021/10/29 00:45:24;;;;;;;;;;;;;;;;;;1034727;28;1070;-18
2021/10/29 00:45:54;;;;;;;;;;;;;;;;;;1035068;28;929;-16
2021/10/29 00:46:24;;;;;;;;;;;;;;;;;;1035045;28;980;-16
2021/10/29 00:46:55;;;;;;;;;;;;;;;;;;1034654;28;1083;-17
2021/10/29 00:47:25;;;;;;;;;;;;;;;;;;1038864;28;1554;-16
2021/10/29 00:47:55;;;;;;;;;;;;;;;;;;1038264;28;1276;-17
2021/10/29 00:48:26;;;;;;;;;;;;;;;;;;1038462;28;1914;-16
2021/10/29 00:48:56;;;;;;;;;;;;;;;;;;1038440;28;922;-16
2021/10/29 00:49:27;;;;;;;;;;;;;;;;;;1034331;28;1203;-16
2021/10/29 00:49:57;;;;;;;;;;;;;;;;;;1034784;28;1187;-16
2021/10/29 00:50:28;;;;;;;;;;;;;;;;;;1035206;28;996;-15
2021/10/29 00:50:58;;;;;;;;;;;;;;;;;;1037997;28;942;-16
2021/10/29 00:51:29;;;;;;;;;;;;;;;;;;1038356;28;903;-16
2021/10/29 00:52:00;;;;;;;;;;;;;;;;;;1038248;28;853;-16
2021/10/29 00:52:30;;;;;;;;;;;;;;;;;;1038296;28;1047;-15
2021/10/29 00:53:01;;;;;;;;;;;;;;;;;;1042205;28;928;-15
2021/10/29 00:53:32;;;;;;;;;;;;;;;;;;1042324;28;1129;-16
2021/10/29 00:54:02;;;;;;;;;;;;;;;;;;1042469;28;1039;-16
2021/10/29 00:54:32;;;;;;;;;;;;;;;;;;1042266;28;846;-16
2021/10/29 00:55:04;;;;;;;;;;;;;;;;;;1038274;28;1017;-15
2021/10/29 00:55:34;;;;;;;;;;;;;;;;;;1038224;28;990;-16
2021/10/29 00:56:06;;;;;;;;;;;;;;;;;;1030029;28;1034;-16
2021/10/29 00:56:36;;;;;;;;;;;;;;;;;;1030292;28;1072;-16
2021/10/29 00:57:07;;;;;;;;;;;;;;;;;;1029789;28;1227;-15
2021/10/29 00:57:38;;;;;;;;;;;;;;;;;;1030196;28;1185;-15
2021/10/29 00:58:09;;;;;;;;;;;;;;;;;;1034986;28;1001;-16
2021/10/29 00:58:39;;;;;;;;;;;;;;;;;;1034333;28;1277;-17
2021/10/29 00:59:10;;;;;;;;;;;;;;;;;;1038110;28;1109;-16
2021/10/29 00:59:40;;;;;;;;;;;;;;;;;;1038272;28;1101;-16
2021/10/29 01:00:13;;;;;;;;;;;;;;;;;;1038054;28;1040;-17
2021/10/29 01:00:43;;;;;;;;;;;;;;;;;;1038060;28;945;-16
2021/10/29 01:01:13;;;;;;;;;;;;;;;;;;1034243;28;1007;-16
2021/10/29 01:01:44;;;;;;;;;;;;;;;;;;1034821;28;1013;-16
2021/10/29 01:02:15;;;;;;;;;;;;;;;;;;1035134;28;846;-16
2021/10/29 01:02:45;;;;;;;;;;;;;;;;;;1038142;28;1344;-15
2021/10/29 01:03:16;;;;;;;;;;;;;;;;;;1038168;28;1139;-15
2021/10/29 01:03:52;;;;;;;;;;;;;;;;;;1038298;28;1103;-16
2021/10/29 01:04:24;;;;;;;;;;;;;;;;;;1037305;28;920;-16
2021/10/29 01:04:56;;;;;;;;;;;;;;;;;;1034214;28;941;-16
2021/10/29 01:05:27;;;;;;;;;;;;;;;;;;1033728;28;1367;-15
2021/10/29 01:05:58;;;;;;;;;;;;;;;;;;1034284;28;1071;-16
2021/10/29 01:06:29;;;;;;;;;;;;;;;;;;1034822;28;960;-15
2021/10/29 01:06:59;;;;;;;;;;;;;;;;;;1038086;28;941;-16
2021/10/29 01:07:32;;;;;;;;;;;;;;;;;;1038437;28;1024;-16
2021/10/29 01:08:04;;;;;;;;;;;;;;;;;;1037912;28;1600;-16
2021/10/29 01:08:37;;;;;;;;;;;;;;;;;;1037867;28;1918;-17
2021/10/29 01:09:07;;;;;;;;;;;;;;;;;;1034560;28;1389;-16
2021/10/29 01:09:38;;;;;;;;;;;;;;;;;;1034736;28;1255;-17
2021/10/29 01:10:09;;;;;;;;;;;;;;;;;;1034767;28;811;-15
2021/10/29 01:10:39;;;;;;;;;;;;;;;;;;1035014;28;1410;-16
2021/10/29 01:11:14;;;;;;;;;;;;;;;;;;1034656;28;1028;-16
2021/10/29 01:11:45;;;;;;;;;;;;;;;;;;1037910;28;1072;-15
2021/10/29 01:12:15;;;;;;;;;;;;;;;;;;1038294;28;997;-16
2021/10/29 01:12:46;;;;;;;;;;;;;;;;;;1038210;28;1147;-16
2021/10/29 01:13:17;;;;;;;;;;;;;;;;;;1038101;28;981;-16
2021/10/29 01:13:47;;;;;;;;;;;;;;;;;;1034930;28;985;-16
2021/10/29 01:14:18;;;;;;;;;;;;;;;;;;1034862;28;977;-18
2021/10/29 01:14:52;;;;;;;;;;;;;;;;;;1034796;28;938;-15
2021/10/29 01:15:23;;;;;;;;;;;;;;;;;;1035031;28;950;-16
2021/10/29 01:15:57;;;;;;;;;;;;;;;;;;1038054;28;1074;-16
2021/10/29 01:16:27;;;;;;;;;;;;;;;;;;1038174;28;1124;-17
2021/10/29 01:16:57;;;;;;;;;;;;;;;;;;1038268;28;905;-16
2021/10/29 01:17:28;;;;;;;;;;;;;;;;;;1037965;28;969;-16
2021/10/29 01:17:59;;;;;;;;;;;;;;;;;;1038104;28;1110;-15
2021/10/29 01:18:29;;;;;;;;;;;;;;;;;;1038324;28;981;-16
2021/10/29 01:19:00;;;;;;;;;;;;;;;;;;1038188;28;933;-16
2021/10/29 01:19:31;;;;;;;;;;;;;;;;;;1038064;28;1000;-16
2021/10/29 01:20:03;;;;;;;;;;;;;;;;;;1042099;28;1053;-16
2021/10/29 01:20:33;;;;;;;;;;;;;;;;;;1042309;28;978;-16
2021/10/29 01:21:04;;;;;;;;;;;;;;;;;;1037345;28;1279;-17
2021/10/29 01:21:35;;;;;;;;;;;;;;;;;;1038122;28;1150;-16
2021/10/29 01:22:05;;;;;;;;;;;;;;;;;;1037943;28;1068;-17
2021/10/29 01:22:35;;;;;;;;;;;;;;;;;;1038189;28;1032;-16
2021/10/29 01:23:06;;;;;;;;;;;;;;;;;;1042058;28;966;-15
2021/10/29 01:23:36;;;;;;;;;;;;;;;;;;1042468;28;1211;-15
2021/10/29 01:24:08;;;;;;;;;;;;;;;;;;1034739;28;957;-16
2021/10/29 01:24:38;;;;;;;;;;;;;;;;;;1035050;28;957;-15
2021/10/29 01:25:10;;;;;;;;;;;;;;;;;;1034536;28;967;-16
2021/10/29 01:25:40;;;;;;;;;;;;;;;;;;1035062;28;989;-16
2021/10/29 01:26:15;;;;;;;;;;;;;;;;;;1038189;28;1067;-16
2021/10/29 01:26:46;;;;;;;;;;;;;;;;;;1038150;28;1056;-16
2021/10/29 01:27:16;;;;;;;;;;;;;;;;;;1037996;28;1131;-16
2021/10/29 01:27:47;;;;;;;;;;;;;;;;;;1037871;28;826;-16
2021/10/29 01:28:17;;;;;;;;;;;;;;;;;;1034613;28;1914;-17
2021/10/29 01:28:48;;;;;;;;;;;;;;;;;;1034787;28;879;-16
2021/10/29 01:29:18;;;;;;;;;;;;;;;;;;1034660;28;945;-16
2021/10/29 01:29:49;;;;;;;;;;;;;;;;;;1034991;28;985;-16
2021/10/29 01:30:20;;;;;;;;;;;;;;;;;;1034544;28;1067;-15
2021/10/29 01:30:50;;;;;;;;;;;;;;;;;;1034570;28;974;-16
2021/10/29 01:31:21;;;;;;;;;;;;;;;;;;1034366;28;1113;-15
2021/10/29 01:31:52;;;;;;;;;;;;;;;;;;1034075;28;1093;-16
2021/10/29 01:32:22;;;;;;;;;;;;;;;;;;1034103;28;1279;-15
2021/10/29 01:32:53;;;;;;;;;;;;;;;;;;1038221;28;1007;-15
2021/10/29 01:33:23;;;;;;;;;;;;;;;;;;1037970;28;807;-16
2021/10/29 01:33:53;;;;;;;;;;;;;;;;;;1035144;28;898;-16
2021/10/29 01:34:24;;;;;;;;;;;;;;;;;;1034576;28;1036;-16
2021/10/29 01:34:54;;;;;;;;;;;;;;;;;;1035019;28;1009;-15
2021/10/29 01:35:25;;;;;;;;;;;;;;;;;;1038087;28;1026;-16
2021/10/29 01:35:55;;;;;;;;;;;;;;;;;;1038018;28;918;-16
2021/10/29 01:36:26;;;;;;;;;;;;;;;;;;1038308;28;1100;-16
2021/10/29 01:36:56;;;;;;;;;;;;;;;;;;1037959;28;1469;-16
2021/10/29 01:37:26;;;;;;;;;;;;;;;;;;1034407;28;1142;-16
2021/10/29 01:37:58;;;;;;;;;;;;;;;;;;1034914;28;982;-16
2021/10/29 01:38:29;;;;;;;;;;;;;;;;;;1037682;28;1428;-16
2021/10/29 01:39:00;;;;;;;;;;;;;;;;;;1037953;28;1184;-15
2021/10/29 01:39:30;;;;;;;;;;;;;;;;;;1038074;28;1139;-15
2021/10/29 01:40:00;;;;;;;;;;;;;;;;;;1037991;28;1022;-15
2021/10/29 01:40:31;;;;;;;;;;;;;;;;;;1034678;28;980;-15
2021/10/29 01:41:01;;;;;;;;;;;;;;;;;;1034854;28;954;-15
2021/10/29 01:41:32;;;;;;;;;;;;;;;;;;1034879;28;1316;-16
2021/10/29 01:42:03;;;;;;;;;;;;;;;;;;1034722;28;1053;-15
2021/10/29 01:42:34;;;;;;;;;;;;;;;;;;1038186;28;937;-16
2021/10/29 01:43:05;;;;;;;;;;;;;;;;;;1038043;28;1036;-16
2021/10/29 01:43:43;;;;;;;;;;;;;;;;;;1037936;28;1007;-16
2021/10/29 01:44:13;;;;;;;;;;;;;;;;;;1038329;28;1137;-16
2021/10/29 01:44:45;;;;;;;;;;;;;;;;;;1038035;28;1152;-16
2021/10/29 01:45:16;;;;;;;;;;;;;;;;;;1037958;28;1197;-15
2021/10/29 01:45:46;;;;;;;;;;;;;;;;;;1038213;28;962;-16
2021/10/29 01:46:17;;;;;;;;;;;;;;;;;;1021823;29;1382;-16
2021/10/29 01:46:48;;;;;;;;;;;;;;;;;;1021898;29;1321;-15
2021/10/29 01:47:19;;;;;;;;;;;;;;;;;;1026046;28;1034;-16
2021/10/29 01:47:49;;;;;;;;;;;;;;;;;;1025712;28;1392;-15
2021/10/29 01:48:19;;;;;;;;;;;;;;;;;;1037864;28;1918;-16
2021/10/29 01:48:51;;;;;;;;;;;;;;;;;;1042365;28;1121;-15
2021/10/29 01:49:22;;;;;;;;;;;;;;;;;;1037688;28;1135;-17
2021/10/29 01:49:52;;;;;;;;;;;;;;;;;;1038003;28;1159;-16
2021/10/29 01:50:23;;;;;;;;;;;;;;;;;;1037927;28;1446;-16
2021/10/29 01:50:53;;;;;;;;;;;;;;;;;;1034108;28;1065;-16
2021/10/29 01:51:24;;;;;;;;;;;;;;;;;;1034744;28;1045;-16
2021/10/29 01:51:54;;;;;;;;;;;;;;;;;;1038174;28;970;-15
2021/10/29 01:52:25;;;;;;;;;;;;;;;;;;1034112;28;1164;-15
2021/10/29 01:52:55;;;;;;;;;;;;;;;;;;1033785;28;1408;-17
2021/10/29 01:53:27;;;;;;;;;;;;;;;;;;1034014;28;1316;-14
2021/10/29 01:53:58;;;;;;;;;;;;;;;;;;1034361;28;1174;-17
2021/10/29 01:54:29;;;;;;;;;;;;;;;;;;1033854;28;1388;-16
2021/10/29 01:54:59;;;;;;;;;;;;;;;;;;1034440;28;1198;-16
2021/10/29 01:55:29;;;;;;;;;;;;;;;;;;1034319;28;964;-16
2021/10/29 01:56:00;;;;;;;;;;;;;;;;;;1033977;28;1053;-15
2021/10/29 01:56:31;;;;;;;;;;;;;;;;;;1042215;28;1036;-16
2021/10/29 01:57:02;;;;;;;;;;;;;;;;;;1041945;28;1117;-16
2021/10/29 01:57:32;;;;;;;;;;;;;;;;;;1042314;28;1001;-15
2021/10/29 01:58:02;;;;;;;;;;;;;;;;;;1037982;28;941;-18
2021/10/29 01:58:33;;;;;;;;;;;;;;;;;;1029885;28;956;-15
2021/10/29 01:59:04;;;;;;;;;;;;;;;;;;1034727;28;946;-17
2021/10/29 01:59:35;;;;;;;;;;;;;;;;;;1038161;28;980;-15
2021/10/29 02:00:06;;;;;;;;;;;;;;;;;;1037846;28;954;-15
2021/10/29 02:00:42;;;;;;;;;;;;;;;;;;1038639;28;892;-18
2021/10/29 02:01:12;;;;;;;;;;;;;;;;;;1038329;28;904;-19
2021/10/29 02:01:43;;;;;;;;;;;;;;;;;;1035606;28;865;-17
2021/10/29 02:02:13;;;;;;;;;;;;;;;;;;1038558;28;1777;-16
2021/10/29 02:02:44;;;;;;;;;;;;;;;;;;1038941;28;1245;-15
2021/10/29 02:03:14;;;;;;;;;;;;;;;;;;1038779;28;1020;-16
2021/10/29 02:03:45;;;;;;;;;;;;;;;;;;1038846;28;1173;-16
2021/10/29 02:04:16;;;;;;;;;;;;;;;;;;1039020;28;972;-16
2021/10/29 02:04:46;;;;;;;;;;;;;;;;;;1038442;28;1287;-15
2021/10/29 02:05:17;;;;;;;;;;;;;;;;;;1038843;28;1174;-16
2021/10/29 02:05:47;;;;;;;;;;;;;;;;;;1039084;28;1108;-16
2021/10/29 02:06:19;;;;;;;;;;;;;;;;;;1038476;28;994;-16
2021/10/29 02:06:49;;;;;;;;;;;;;;;;;;1034888;28;1054;-16
2021/10/29 02:07:20;;;;;;;;;;;;;;;;;;1034747;28;1052;-15
2021/10/29 02:07:50;;;;;;;;;;;;;;;;;;1034727;28;994;-16
2021/10/29 02:08:24;;;;;;;;;;;;;;;;;;1034927;28;1906;-18
2021/10/29 02:08:55;;;;;;;;;;;;;;;;;;1038872;28;1132;-16
2021/10/29 02:09:25;;;;;;;;;;;;;;;;;;1038707;28;1050;-16
2021/10/29 02:09:56;;;;;;;;;;;;;;;;;;1038998;28;956;-17
2021/10/29 02:10:26;;;;;;;;;;;;;;;;;;1034715;28;1158;-15
2021/10/29 02:10:57;;;;;;;;;;;;;;;;;;1034624;28;1091;-16
2021/10/29 02:11:27;;;;;;;;;;;;;;;;;;1034912;28;1319;-16
2021/10/29 02:11:57;;;;;;;;;;;;;;;;;;1034813;28;959;-16
2021/10/29 02:12:28;;;;;;;;;;;;;;;;;;1038869;28;1252;-16
2021/10/29 02:12:58;;;;;;;;;;;;;;;;;;1035550;28;890;-16
2021/10/29 02:13:29;;;;;;;;;;;;;;;;;;1035548;28;930;-16
2021/10/29 02:13:59;;;;;;;;;;;;;;;;;;1038415;28;1494;-16
2021/10/29 02:14:30;;;;;;;;;;;;;;;;;;1034664;28;1306;-16
2021/10/29 02:15:00;;;;;;;;;;;;;;;;;;1038595;28;1176;-17
2021/10/29 02:15:31;;;;;;;;;;;;;;;;;;1038663;28;1040;-15
2021/10/29 02:16:01;;;;;;;;;;;;;;;;;;1039004;28;1103;-15
2021/10/29 02:16:32;;;;;;;;;;;;;;;;;;1038921;28;1016;-16
2021/10/29 02:17:03;;;;;;;;;;;;;;;;;;1034314;28;1472;-16
2021/10/29 02:17:34;;;;;;;;;;;;;;;;;;1038964;28;1054;-16
2021/10/29 02:18:04;;;;;;;;;;;;;;;;;;1034561;28;1606;-15
2021/10/29 02:18:35;;;;;;;;;;;;;;;;;;1034921;28;787;-16
2021/10/29 02:19:05;;;;;;;;;;;;;;;;;;1034716;28;1170;-15
2021/10/29 02:19:36;;;;;;;;;;;;;;;;;;1034944;28;979;-16
2021/10/29 02:20:07;;;;;;;;;;;;;;;;;;1035579;28;956;-16
2021/10/29 02:20:38;;;;;;;;;;;;;;;;;;1038324;28;1343;-16
2021/10/29 02:21:08;;;;;;;;;;;;;;;;;;1038283;28;1174;-17
2021/10/29 02:21:38;;;;;;;;;;;;;;;;;;1038908;28;1160;-16
2021/10/29 02:22:08;;;;;;;;;;;;;;;;;;1038578;28;1201;-16
2021/10/29 02:22:39;;;;;;;;;;;;;;;;;;1035579;28;1016;-17
2021/10/29 02:23:10;;;;;;;;;;;;;;;;;;1030713;28;1116;-17
2021/10/29 02:23:40;;;;;;;;;;;;;;;;;;1030517;28;1436;-16
2021/10/29 02:24:11;;;;;;;;;;;;;;;;;;1030498;28;1135;-17
2021/10/29 02:24:41;;;;;;;;;;;;;;;;;;1030787;28;1233;-16
2021/10/29 02:25:11;;;;;;;;;;;;;;;;;;1035232;28;1121;-16
2021/10/29 02:25:46;;;;;;;;;;;;;;;;;;1038742;28;1027;-15
2021/10/29 02:26:16;;;;;;;;;;;;;;;;;;1038734;28;1196;-16
2021/10/29 02:26:47;;;;;;;;;;;;;;;;;;1039055;28;1038;-16
2021/10/29 02:27:17;;;;;;;;;;;;;;;;;;1038006;28;1481;-16
2021/10/29 02:27:47;;;;;;;;;;;;;;;;;;1035556;28;1219;-15
2021/10/29 02:28:19;;;;;;;;;;;;;;;;;;1035459;28;1263;-15
2021/10/29 02:28:50;;;;;;;;;;;;;;;;;;1038117;28;1261;-15
2021/10/29 02:29:21;;;;;;;;;;;;;;;;;;1038733;28;1205;-16
2021/10/29 02:29:51;;;;;;;;;;;;;;;;;;1034531;28;1248;-13
2021/10/29 02:30:21;;;;;;;;;;;;;;;;;;1033918;28;1624;-15
2021/10/29 02:30:52;;;;;;;;;;;;;;;;;;1034958;28;1091;-16
2021/10/29 02:31:27;;;;;;;;;;;;;;;;;;1034190;28;1685;-17
2021/10/29 02:31:57;;;;;;;;;;;;;;;;;;1031212;28;1257;-15
2021/10/29 02:32:28;;;;;;;;;;;;;;;;;;1031583;28;842;-16
2021/10/29 02:32:58;;;;;;;;;;;;;;;;;;1030985;28;1491;-15
2021/10/29 02:33:29;;;;;;;;;;;;;;;;;;1034608;28;1365;-16
2021/10/29 02:33:59;;;;;;;;;;;;;;;;;;1034686;28;1005;-16
2021/10/29 02:34:30;;;;;;;;;;;;;;;;;;1034702;28;1007;-16
2021/10/29 02:35:00;;;;;;;;;;;;;;;;;;1034920;28;555;-16
2021/10/29 02:35:30;;;;;;;;;;;;;;;;;;1031076;28;1789;-15
2021/10/29 02:36:01;;;;;;;;;;;;;;;;;;1031349;28;1011;-16
2021/10/29 02:36:31;;;;;;;;;;;;;;;;;;1034502;28;1478;-16
2021/10/29 02:37:02;;;;;;;;;;;;;;;;;;1034652;28;1207;-16
2021/10/29 02:37:32;;;;;;;;;;;;;;;;;;1034506;28;1320;-16
2021/10/29 02:38:03;;;;;;;;;;;;;;;;;;1034681;28;1166;-15
2021/10/29 02:38:34;;;;;;;;;;;;;;;;;;1034808;28;1323;-15
2021/10/29 02:39:04;;;;;;;;;;;;;;;;;;1034658;28;1033;-15
2021/10/29 02:39:35;;;;;;;;;;;;;;;;;;1034606;28;934;-16
2021/10/29 02:40:07;;;;;;;;;;;;;;;;;;1034750;28;989;-16
2021/10/29 02:40:38;;;;;;;;;;;;;;;;;;1034523;28;1100;-16
2021/10/29 02:41:08;;;;;;;;;;;;;;;;;;1034817;28;1107;-15
2021/10/29 02:41:38;;;;;;;;;;;;;;;;;;1034823;28;1018;-16
2021/10/29 02:42:09;;;;;;;;;;;;;;;;;;1034454;28;941;-16
2021/10/29 02:42:40;;;;;;;;;;;;;;;;;;1034865;28;1074;-16
2021/10/29 02:43:10;;;;;;;;;;;;;;;;;;1034709;28;1175;-16
2021/10/29 02:43:46;;;;;;;;;;;;;;;;;;1034595;28;1088;-15
2021/10/29 02:44:17;;;;;;;;;;;;;;;;;;1034190;28;954;-16
2021/10/29 02:44:47;;;;;;;;;;;;;;;;;;1038725;28;1110;-16
2021/10/29 02:45:17;;;;;;;;;;;;;;;;;;1038731;28;1134;-16
2021/10/29 02:45:48;;;;;;;;;;;;;;;;;;1038771;28;961;-17
2021/10/29 02:46:19;;;;;;;;;;;;;;;;;;1038502;28;1051;-15
2021/10/29 02:46:49;;;;;;;;;;;;;;;;;;1034531;28;1148;-15
2021/10/29 02:47:20;;;;;;;;;;;;;;;;;;1030541;28;1108;-16
2021/10/29 02:47:50;;;;;;;;;;;;;;;;;;1030708;28;1033;-16
2021/10/29 02:48:21;;;;;;;;;;;;;;;;;;1030469;28;1939;-15
2021/10/29 02:48:51;;;;;;;;;;;;;;;;;;1030776;28;965;-16
2021/10/29 02:49:22;;;;;;;;;;;;;;;;;;1031287;28;867;-16
2021/10/29 02:49:52;;;;;;;;;;;;;;;;;;1031347;28;898;-16
2021/10/29 02:50:23;;;;;;;;;;;;;;;;;;1031308;28;974;-16
2021/10/29 02:50:53;;;;;;;;;;;;;;;;;;1031348;28;1053;-16
2021/10/29 02:51:25;;;;;;;;;;;;;;;;;;1030906;28;1448;-17
2021/10/29 02:51:55;;;;;;;;;;;;;;;;;;1031388;28;1009;-18
2021/10/29 02:52:26;;;;;;;;;;;;;;;;;;1031005;28;1315;-18
2021/10/29 02:52:56;;;;;;;;;;;;;;;;;;1031158;28;1219;-16
2021/10/29 02:53:27;;;;;;;;;;;;;;;;;;1031459;28;917;-16
2021/10/29 02:53:58;;;;;;;;;;;;;;;;;;1030826;28;1320;-16
2021/10/29 02:54:28;;;;;;;;;;;;;;;;;;1031278;28;1012;-17
2021/10/29 02:54:59;;;;;;;;;;;;;;;;;;1034155;28;1853;-15
2021/10/29 02:55:30;;;;;;;;;;;;;;;;;;1034322;28;1067;-15
2021/10/29 02:56:00;;;;;;;;;;;;;;;;;;1034626;28;1022;-16
2021/10/29 02:56:31;;;;;;;;;;;;;;;;;;1034660;28;1166;-16
2021/10/29 02:57:01;;;;;;;;;;;;;;;;;;1031138;28;882;-16
2021/10/29 02:57:32;;;;;;;;;;;;;;;;;;1031486;28;1690;-16
2021/10/29 02:58:02;;;;;;;;;;;;;;;;;;1030909;28;1490;-16
2021/10/29 02:58:33;;;;;;;;;;;;;;;;;;1031192;28;1126;-16
2021/10/29 02:59:04;;;;;;;;;;;;;;;;;;1030928;28;1268;-15
2021/10/29 02:59:34;;;;;;;;;;;;;;;;;;1031111;28;1502;-17
2021/10/29 03:00:11;;;;;;;;;;;;;;;;;;1031217;28;883;-18
2021/10/29 03:00:42;;;;;;;;;;;;;;;;;;1038525;28;1027;-17
2021/10/29 03:01:12;;;;;;;;;;;;;;;;;;1038904;28;965;-17
2021/10/29 03:01:43;;;;;;;;;;;;;;;;;;1038505;28;1191;-17
2021/10/29 03:02:13;;;;;;;;;;;;;;;;;;1038800;28;1001;-17
2021/10/29 03:02:44;;;;;;;;;;;;;;;;;;1031303;28;890;-18
2021/10/29 03:03:15;;;;;;;;;;;;;;;;;;1030800;28;1677;-17
2021/10/29 03:03:45;;;;;;;;;;;;;;;;;;1034644;28;1193;-18
2021/10/29 03:04:16;;;;;;;;;;;;;;;;;;1030601;28;1205;-17
2021/10/29 03:04:47;;;;;;;;;;;;;;;;;;1030371;28;1017;-18
2021/10/29 03:05:17;;;;;;;;;;;;;;;;;;1030484;28;1034;-17
2021/10/29 03:05:48;;;;;;;;;;;;;;;;;;1030434;28;1039;-18
2021/10/29 03:06:18;;;;;;;;;;;;;;;;;;1034622;28;925;-17
2021/10/29 03:06:48;;;;;;;;;;;;;;;;;;1030714;28;894;-19
2021/10/29 03:07:19;;;;;;;;;;;;;;;;;;1030775;28;1073;-17
2021/10/29 03:07:49;;;;;;;;;;;;;;;;;;1030838;28;969;-17
2021/10/29 03:08:20;;;;;;;;;;;;;;;;;;1031042;28;918;-17
2021/10/29 03:08:50;;;;;;;;;;;;;;;;;;1031164;28;1997;-17
2021/10/29 03:09:21;;;;;;;;;;;;;;;;;;1031207;28;871;-18
2021/10/29 03:09:53;;;;;;;;;;;;;;;;;;1031305;28;947;-17
2021/10/29 03:10:23;;;;;;;;;;;;;;;;;;1031212;28;1001;-18
2021/10/29 03:10:54;;;;;;;;;;;;;;;;;;1031122;28;2187;-17
2021/10/29 03:11:25;;;;;;;;;;;;;;;;;;1031196;28;1078;-18
2021/10/29 03:11:56;;;;;;;;;;;;;;;;;;1038493;28;1149;-18
2021/10/29 03:12:27;;;;;;;;;;;;;;;;;;1037643;28;1233;-18
2021/10/29 03:12:57;;;;;;;;;;;;;;;;;;1026248;28;1090;-17
2021/10/29 03:13:29;;;;;;;;;;;;;;;;;;1018202;29;1080;-19
2021/10/29 03:13:59;;;;;;;;;;;;;;;;;;1014194;29;1074;-17
2021/10/29 03:14:30;;;;;;;;;;;;;;;;;;1011415;29;1002;-17
2021/10/29 03:15:00;;;;;;;;;;;;;;;;;;1022449;28;1223;-16
2021/10/29 03:15:31;;;;;;;;;;;;;;;;;;1031444;28;855;-17
2021/10/29 03:16:01;;;;;;;;;;;;;;;;;;1031092;28;922;-17
2021/10/29 03:16:32;;;;;;;;;;;;;;;;;;1030402;28;1191;-17
2021/10/29 03:17:02;;;;;;;;;;;;;;;;;;1030416;28;1052;-18
2021/10/29 03:17:33;;;;;;;;;;;;;;;;;;1030703;28;927;-17
2021/10/29 03:18:04;;;;;;;;;;;;;;;;;;1030180;28;909;-18
2021/10/29 03:18:34;;;;;;;;;;;;;;;;;;1031504;28;934;-18
2021/10/29 03:19:05;;;;;;;;;;;;;;;;;;1030740;28;1363;-17
2021/10/29 03:19:36;;;;;;;;;;;;;;;;;;1038468;28;1069;-17
2021/10/29 03:20:07;;;;;;;;;;;;;;;;;;1038292;28;1111;-17
2021/10/29 03:20:38;;;;;;;;;;;;;;;;;;1042655;28;1013;-17
2021/10/29 03:21:09;;;;;;;;;;;;;;;;;;1042278;28;996;-16
2021/10/29 03:21:40;;;;;;;;;;;;;;;;;;1042788;28;944;-17
2021/10/29 03:22:10;;;;;;;;;;;;;;;;;;1042559;28;954;-18
2021/10/29 03:22:41;;;;;;;;;;;;;;;;;;1038372;28;1036;-17
2021/10/29 03:23:13;;;;;;;;;;;;;;;;;;1038548;28;1124;-17
2021/10/29 03:23:44;;;;;;;;;;;;;;;;;;1034671;28;992;-17
2021/10/29 03:24:15;;;;;;;;;;;;;;;;;;1038319;28;1020;-17
2021/10/29 03:24:45;;;;;;;;;;;;;;;;;;1038644;28;1694;-18
2021/10/29 03:25:16;;;;;;;;;;;;;;;;;;1038527;28;1004;-17
2021/10/29 03:25:46;;;;;;;;;;;;;;;;;;1021286;29;1383;-17
2021/10/29 03:26:17;;;;;;;;;;;;;;;;;;1018453;29;1282;-17
2021/10/29 03:26:47;;;;;;;;;;;;;;;;;;1014251;29;1054;-17
2021/10/29 03:27:19;;;;;;;;;;;;;;;;;;1014513;29;1012;-18
2021/10/29 03:27:49;;;;;;;;;;;;;;;;;;1031349;28;1137;-17
2021/10/29 03:28:20;;;;;;;;;;;;;;;;;;1030112;28;1126;-18
2021/10/29 03:28:50;;;;;;;;;;;;;;;;;;1030279;28;1914;-17
2021/10/29 03:29:21;;;;;;;;;;;;;;;;;;1034049;28;1467;-17
2021/10/29 03:29:52;;;;;;;;;;;;;;;;;;1034276;28;1173;-17
2021/10/29 03:30:22;;;;;;;;;;;;;;;;;;1035830;28;1265;-18
2021/10/29 03:30:53;;;;;;;;;;;;;;;;;;1038372;28;1323;-17
2021/10/29 03:31:23;;;;;;;;;;;;;;;;;;1038383;28;1172;-17
2021/10/29 03:31:53;;;;;;;;;;;;;;;;;;1035487;28;1113;-17
2021/10/29 03:32:24;;;;;;;;;;;;;;;;;;1034337;28;1389;-17
2021/10/29 03:32:55;;;;;;;;;;;;;;;;;;1035042;28;950;-18
2021/10/29 03:33:26;;;;;;;;;;;;;;;;;;1035054;28;1160;-18
2021/10/29 03:33:57;;;;;;;;;;;;;;;;;;1035307;28;1108;-18
2021/10/29 03:34:27;;;;;;;;;;;;;;;;;;1035156;28;966;-18
2021/10/29 03:34:58;;;;;;;;;;;;;;;;;;1038352;28;1031;-17